Tuesday, May 24, 2016
13:45 UTC
  |  Log In   |  Register Free
Airport Search:

Raleigh-Durham International Airport
(KRDU)

FAA data valid effective Mar 31 2016 - May 26 2016 (unless otherwise noted).

 
 
 
 
 
 
 
 
 
 
 
 
 
 
Current Aviation Weather for KRDU

Weather Summary


The most recent METAR observation for RDU was updated at: 12:51 UTC
METAR for KRDU is not available. Closest METAR is for KIGX
KRDU  (most recent observation was updatred at 24:12 UTC)
241251Z 24007KT 10SM FEW250 18/14 A3012

KIGX  (14.0 nm SE)   (most recent observation was updated at 24:12 UTC)
241256Z AUTO 28005KT 10SM CLR 18/12 A3012 RMK AO2 SLP198 T01830122 TSNO

KTTA  (23.4 nm NE)   (most recent observation was updated at 24:13 UTC)
241330Z AUTO 26004KT 10SM CLR 18/13 A3012 RMK AO2 T01800129

TAF for KRDU is not available.
KRDU
241120Z 2412/2512 26007KT P6SM SCT050

GlobalAir.com is loading additional information.
 Current Weather at RDU
58.0 F° (14.4 C°)

West winds at 5.8 mph
Pressure:
30.10 in
Humidity:
90%
Wind:
West at 5.8 mph
Dew Point:
55.0 F° (12.8 C°)
Visibility:
10.00 mi
RDU NOAA Radar




Find All Airport Services Find A Hotel Find A Rental Car Find A Golf Course Find A Restaurant $100 Hamburger



Airport Weather Forecast for KRDU

Translated METAR for KRDU (1251 UTC)
METAR:
KRDU 241251Z 24007KT 10SM FEW250 18/14 A3012
Conditions at:
KRDU (Raleigh-Durham Intl, NC) observed 1251 UTC 24 May 2016
Temperature:
18°C (64.4°F)
Dewpoint:
14°C (57.2°F) [RH = 77.5]
Pressure:
30.12 inches Hg (1020 mb)
Winds:
from the WSW (240 degrees) at 8.1 mph (7 knots: 3.6 m/s)
Visibility:
10 mile(s)
Ceiling:
at least 12,000 feet AGL
Clouds:
Few Clouds at 25,000 feet AGL
Remarks:

Translated TAF for KRDU (Raleigh-Durham Intl, NC) (1120 UTC)
TAF text:
KRDU 241120Z 2412/2512 26007KT P6SM SCT050
Forecast period:
Tuesday May 24 2016 12:00 UTC - Wednesday May 25 2016 12:00 UTC
Forecast type:
FROM: standard forecast or significant change
Winds:
from the W (260 degrees) at 8.1 mph (7 knots: 3.6 m/s)
Visibility:
6 or more mile(s) (9.7+ km)
Ceiling:
at least 12,000 feet AGL
Clouds:
Scattered Clouds at 5,000 feet AGL
Weather:
no significant weather observed at this time
FBO's on the Field
FBO Company Facility Photos Services Transportation Aviation Fuel Prices: Prices include tax
Catering Weather Repair Courtesy Rental Type 100LL JetA JetA+ MOGAS 8087
 
Signature Flight Support - RDU

Currently rated 3.8 by 3 people
FS:Shell
Last Updated: May-24
Login to update fuel prices
SS:
Contact Signature Flight Support - RDUMore FBO Information
 
TAC Air - RDU

Currently rated 5 by 3 people
FS:Avfuel
Last Updated: Apr-28
Login to update fuel prices
SS:
Contact TAC Air - RDUMore FBO Information
 
Add another FBO Facility Photos Catering Weather Repair Courtesy Rental Type 100LL JetA JetA+ MOGAS 8087
Services Transportation Aviation Fuel Prices: Prices include tax


model-print
model-print
model-print
model-print